createdAt,value
2023-02-11T00:00:14.747Z,35.00
2023-02-11T00:01:14.769Z,33.80
2023-02-11T00:02:14.805Z,34.60
2023-02-11T00:03:14.781Z,34.50
2023-02-11T00:04:14.725Z,32.90
2023-02-11T00:05:14.758Z,34.70
2023-02-11T00:06:14.748Z,34.50
2023-02-11T00:07:14.732Z,34.40
2023-02-11T00:08:14.701Z,34.60
2023-02-11T00:09:14.704Z,34.10
2023-02-11T00:10:14.700Z,34.50
2023-02-11T00:11:14.754Z,34.60
2023-02-11T00:12:14.659Z,34.80
2023-02-11T00:13:14.682Z,34.70
2023-02-11T00:14:14.680Z,35.20
2023-02-11T00:15:14.664Z,33.90
2023-02-11T00:16:14.711Z,35.20
2023-02-11T00:17:14.691Z,35.90
2023-02-11T00:18:14.660Z,34.50
2023-02-11T00:19:14.639Z,34.80
2023-02-11T00:20:14.648Z,36.00
2023-02-11T00:21:14.623Z,35.20
2023-02-11T00:22:14.606Z,34.70
2023-02-11T00:23:14.651Z,36.00
2023-02-11T00:24:14.590Z,34.60
2023-02-11T00:25:14.591Z,34.50
2023-02-11T00:26:14.593Z,36.10
2023-02-11T00:27:14.543Z,35.50
2023-02-11T00:28:14.618Z,35.70
2023-02-11T00:29:14.609Z,34.30
2023-02-11T00:30:14.583Z,34.70
2023-02-11T00:31:14.661Z,36.00
2023-02-11T00:32:14.543Z,36.50
2023-02-11T00:33:14.528Z,36.50
2023-02-11T00:34:14.551Z,34.20
2023-02-11T00:35:14.601Z,36.60
2023-02-11T00:36:14.535Z,36.70
2023-02-11T00:37:14.499Z,37.00
2023-02-11T00:38:14.514Z,34.60
2023-02-11T00:39:14.498Z,34.70
2023-02-11T00:40:14.465Z,35.80
2023-02-11T00:41:14.534Z,35.40
2023-02-11T00:42:14.493Z,34.90
2023-02-11T00:43:14.464Z,35.70
2023-02-11T00:44:14.479Z,36.10
2023-02-11T00:45:14.429Z,35.90
2023-02-11T00:46:14.512Z,34.40
2023-02-11T00:47:14.847Z,35.50
2023-02-11T00:48:14.403Z,37.10
2023-02-11T00:49:14.401Z,36.20
2023-02-11T00:50:14.410Z,35.30
2023-02-11T00:51:14.387Z,37.00
2023-02-11T00:52:14.428Z,36.90
2023-02-11T00:53:14.429Z,36.60
2023-02-11T00:54:14.408Z,36.30
2023-02-11T00:55:14.397Z,36.30
2023-02-11T00:56:14.396Z,36.60
2023-02-11T00:57:14.371Z,37.40
2023-02-11T00:58:14.365Z,35.90
2023-02-11T00:59:14.396Z,37.00
2023-02-11T01:00:14.365Z,36.50
2023-02-11T01:01:14.393Z,36.30
2023-02-11T01:02:14.326Z,38.10
2023-02-11T01:03:14.331Z,35.70
2023-02-11T01:04:14.322Z,37.30
2023-02-11T01:05:14.401Z,37.20
2023-02-11T01:06:14.321Z,37.00
2023-02-11T01:07:14.285Z,36.90
2023-02-11T01:08:14.260Z,37.90
2023-02-11T01:09:14.325Z,37.70
2023-02-11T01:10:14.317Z,37.70
2023-02-11T01:11:14.379Z,37.50
2023-02-11T01:12:14.249Z,36.50
2023-02-11T01:13:14.251Z,37.50
2023-02-11T01:14:14.267Z,36.50
2023-02-11T01:15:26.151Z,36.50
2023-02-11T01:16:14.317Z,37.30
2023-02-11T01:17:14.268Z,36.60
2023-02-11T01:18:14.250Z,39.30
2023-02-11T01:19:14.234Z,36.90
2023-02-11T01:20:14.235Z,37.70
2023-02-11T01:21:14.207Z,36.20
2023-02-11T01:22:14.320Z,36.60
2023-02-11T01:23:14.299Z,36.80
2023-02-11T01:24:14.178Z,37.80
2023-02-11T01:25:14.188Z,37.90
2023-02-11T01:26:14.179Z,36.70
2023-02-11T01:27:14.190Z,36.60
2023-02-11T01:28:14.238Z,37.30
2023-02-11T01:29:37.844Z,37.00
2023-02-11T01:30:14.174Z,37.50
2023-02-11T01:31:14.254Z,36.70
2023-02-11T01:32:14.267Z,35.10
2023-02-11T01:33:14.192Z,36.10
2023-02-11T01:34:14.142Z,35.70
2023-02-11T01:35:14.152Z,35.00
2023-02-11T01:36:14.189Z,35.80
2023-02-11T01:37:14.108Z,36.20
2023-02-11T01:38:14.093Z,35.80
2023-02-11T01:39:14.093Z,38.20
2023-02-11T01:40:14.112Z,35.90
2023-02-11T01:41:14.150Z,34.80
2023-02-11T01:42:14.109Z,36.40
2023-02-11T01:43:14.079Z,36.10
2023-02-11T01:44:14.029Z,35.60
2023-02-11T01:45:14.094Z,35.00
2023-02-11T01:46:14.132Z,36.60
2023-02-11T01:47:14.070Z,35.70
2023-02-11T01:48:14.031Z,37.80
2023-02-11T01:49:14.044Z,35.90
2023-02-11T01:50:14.013Z,35.60
2023-02-11T01:51:14.003Z,35.30
2023-02-11T01:52:14.017Z,36.10
2023-02-11T01:53:14.309Z,36.40
2023-02-11T01:54:13.993Z,36.00
2023-02-11T01:55:13.970Z,35.70
2023-02-11T01:56:13.971Z,36.50
2023-02-11T01:57:13.958Z,35.80
2023-02-11T01:58:13.971Z,34.90
2023-02-11T01:59:13.989Z,36.60
2023-02-11T02:00:13.973Z,34.50
2023-02-11T02:01:13.968Z,35.70
2023-02-11T02:02:13.937Z,35.70
2023-02-11T02:03:13.953Z,35.60
2023-02-11T02:04:13.910Z,34.40
2023-02-11T02:05:13.938Z,33.60
2023-02-11T02:06:13.913Z,35.90
2023-02-11T02:07:13.891Z,34.60
2023-02-11T02:08:13.923Z,37.10
2023-02-11T02:09:13.872Z,35.70
2023-02-11T02:10:13.875Z,35.30
2023-02-11T02:11:13.912Z,34.90
2023-02-11T02:12:13.850Z,35.50
2023-02-11T02:13:13.846Z,35.10
2023-02-11T02:14:13.857Z,36.20
2023-02-11T02:15:13.846Z,36.70
2023-02-11T02:16:13.910Z,34.30
2023-02-11T02:17:13.874Z,34.40
2023-02-11T02:18:13.806Z,36.30
2023-02-11T02:19:13.816Z,34.20
2023-02-11T02:20:13.821Z,34.70
2023-02-11T02:21:13.765Z,35.60
2023-02-11T02:22:13.796Z,34.30
2023-02-11T02:23:13.866Z,35.60
2023-02-11T02:24:14.307Z,35.30
2023-02-11T02:25:13.766Z,34.10
2023-02-11T02:26:13.783Z,36.10
2023-02-11T02:27:13.743Z,35.10
2023-02-11T02:28:13.765Z,34.60
2023-02-11T02:29:13.785Z,35.70
2023-02-11T02:30:13.784Z,34.70
2023-02-11T02:31:13.791Z,34.40
2023-02-11T02:32:13.724Z,36.40
2023-02-11T02:33:22.367Z,34.30
2023-02-11T02:34:14.777Z,36.00
2023-02-11T02:35:13.687Z,34.80
2023-02-11T02:36:13.679Z,34.90
2023-02-11T02:37:13.692Z,35.10
2023-02-11T02:38:13.683Z,34.80
2023-02-11T02:39:13.654Z,35.20
2023-02-11T02:40:13.684Z,33.90
2023-02-11T02:41:13.672Z,35.20
2023-02-11T02:42:13.642Z,34.40
2023-02-11T02:43:13.623Z,36.40
2023-02-11T02:44:13.645Z,34.90
2023-02-11T02:45:13.635Z,34.30
2023-02-11T02:46:13.729Z,34.80
2023-02-11T02:47:13.595Z,34.50
2023-02-11T02:48:13.606Z,34.90
2023-02-11T02:49:13.620Z,34.70
2023-02-11T02:50:13.589Z,36.90
2023-02-11T02:51:13.610Z,34.30
2023-02-11T02:52:13.625Z,35.00
2023-02-11T02:53:13.545Z,35.80
2023-02-11T02:54:13.572Z,35.10
2023-02-11T02:55:13.548Z,35.20
2023-02-11T02:56:13.530Z,35.50
2023-02-11T02:57:13.563Z,35.60
2023-02-11T02:58:13.928Z,35.10
2023-02-11T02:59:13.512Z,36.30
2023-02-11T03:00:13.512Z,35.50
2023-02-11T03:01:13.554Z,34.80
2023-02-11T03:02:13.518Z,36.60
2023-02-11T03:03:13.516Z,35.00
2023-02-11T03:04:13.528Z,35.00
2023-02-11T03:05:13.493Z,36.30
2023-02-11T03:06:13.516Z,33.90
2023-02-11T03:07:13.499Z,34.80
2023-02-11T03:08:13.464Z,35.10
2023-02-11T03:09:13.450Z,36.20
2023-02-11T03:10:13.490Z,35.80
2023-02-11T03:11:13.447Z,34.90
2023-02-11T03:12:13.463Z,34.90
2023-02-11T03:13:13.409Z,35.60
2023-02-11T03:14:13.466Z,34.70
2023-02-11T03:15:13.433Z,34.60
2023-02-11T03:16:13.507Z,36.40
2023-02-11T03:17:13.387Z,35.50
2023-02-11T03:18:13.410Z,35.90
2023-02-11T03:19:13.373Z,36.30
2023-02-11T03:20:13.392Z,37.10
2023-02-11T03:21:13.371Z,35.50
2023-02-11T03:22:13.436Z,35.50
2023-02-11T03:23:13.370Z,35.40
2023-02-11T03:24:13.395Z,34.50
2023-02-11T03:25:13.355Z,36.90
2023-02-11T03:26:13.351Z,35.60
2023-02-11T03:27:13.325Z,35.20
2023-02-11T03:28:13.416Z,36.30
2023-02-11T03:29:13.346Z,35.60
2023-02-11T03:30:13.304Z,34.30
2023-02-11T03:31:13.351Z,35.20
2023-02-11T03:32:13.358Z,35.60
2023-02-11T03:33:13.271Z,35.70
2023-02-11T03:34:13.333Z,34.90
2023-02-11T03:35:13.273Z,34.40
2023-02-11T03:36:13.252Z,35.40
2023-02-11T03:37:13.288Z,36.20
2023-02-11T03:38:13.268Z,35.60
2023-02-11T03:39:13.235Z,37.00
2023-02-11T03:40:13.291Z,36.80
2023-02-11T03:41:13.249Z,36.40
2023-02-11T03:42:13.254Z,36.30
2023-02-11T03:43:13.209Z,35.30
2023-02-11T03:44:13.207Z,37.40
2023-02-11T03:45:36.768Z,36.50
2023-02-11T03:46:13.362Z,36.00
2023-02-11T03:47:13.189Z,36.20
2023-02-11T03:48:13.190Z,36.90
2023-02-11T03:49:13.212Z,36.60
2023-02-11T03:50:13.175Z,37.50
2023-02-11T03:51:13.140Z,36.50
2023-02-11T03:52:43.820Z,36.50
2023-02-11T03:53:13.148Z,36.20
2023-02-11T03:54:13.161Z,35.40
2023-02-11T03:55:13.116Z,35.80
2023-02-11T03:56:13.130Z,36.40
2023-02-11T03:57:13.131Z,36.20
2023-02-11T03:58:13.155Z,37.10
2023-02-11T03:59:13.110Z,37.20
2023-02-11T04:00:19.912Z,37.50
2023-02-11T04:01:13.161Z,37.70
2023-02-11T04:02:13.057Z,37.90
2023-02-11T04:03:13.100Z,36.60
2023-02-11T04:04:13.358Z,37.80
2023-02-11T04:06:00.415Z,37.50
2023-02-11T04:06:14.065Z,37.40
2023-02-11T04:07:13.031Z,37.00
2023-02-11T04:08:13.027Z,37.90
2023-02-11T04:09:13.034Z,37.70
2023-02-11T04:10:13.045Z,37.70
2023-02-11T04:11:12.993Z,37.50
2023-02-11T04:12:13.006Z,37.30
2023-02-11T04:13:12.989Z,39.40
2023-02-11T04:14:12.974Z,37.50
2023-02-11T04:15:12.975Z,37.30
2023-02-11T04:16:13.031Z,37.30
2023-02-11T04:17:12.953Z,37.60
2023-02-11T04:18:12.941Z,37.00
2023-02-11T04:19:12.959Z,37.30
2023-02-11T04:20:12.951Z,36.20
2023-02-11T04:21:12.927Z,37.90
2023-02-11T04:22:12.970Z,38.40
2023-02-11T04:23:12.940Z,38.20
2023-02-11T04:24:12.910Z,38.50
2023-02-11T04:25:12.909Z,37.70
2023-02-11T04:26:12.883Z,37.60
2023-02-11T04:27:12.915Z,38.30
2023-02-11T04:28:12.938Z,37.00
2023-02-11T04:29:12.920Z,38.30
2023-02-11T04:30:12.861Z,37.00
2023-02-11T04:31:12.994Z,38.80
2023-02-11T04:32:12.966Z,37.80
2023-02-11T04:33:12.845Z,37.50
2023-02-11T04:34:12.869Z,38.10
2023-02-11T04:35:12.814Z,37.70
2023-02-11T04:36:12.832Z,37.10
2023-02-11T04:37:12.813Z,37.50
2023-02-11T04:38:12.792Z,36.30
2023-02-11T04:39:12.815Z,36.90
2023-02-11T04:40:12.819Z,37.30
2023-02-11T04:41:12.804Z,38.20
2023-02-11T04:42:12.781Z,38.30
2023-02-11T04:43:12.760Z,36.70
2023-02-11T04:44:12.793Z,36.80
2023-02-11T04:45:12.762Z,36.60
2023-02-11T04:46:12.932Z,37.20
2023-02-11T04:47:12.761Z,36.90
2023-02-11T04:48:12.736Z,35.30
2023-02-11T04:49:12.722Z,37.20
2023-02-11T04:50:12.730Z,37.00
2023-02-11T04:51:12.712Z,39.00
2023-02-11T04:52:12.746Z,36.10
2023-02-11T04:53:12.699Z,38.20
2023-02-11T04:54:12.713Z,37.50
2023-02-11T04:55:12.690Z,36.90
2023-02-11T04:56:12.715Z,37.80
2023-02-11T04:57:12.698Z,39.40
2023-02-11T04:58:12.702Z,37.90
2023-02-11T04:59:12.652Z,38.90
2023-02-11T05:00:12.686Z,38.70
2023-02-11T05:01:12.692Z,39.10
2023-02-11T05:02:12.673Z,38.80
2023-02-11T05:03:12.643Z,38.80
2023-02-11T05:04:12.709Z,38.80
2023-02-11T05:05:12.650Z,37.10
2023-02-11T05:06:12.625Z,38.40
2023-02-11T05:07:12.600Z,39.10
2023-02-11T05:08:12.590Z,39.10
2023-02-11T05:09:12.593Z,38.60
2023-02-11T05:10:12.926Z,38.20
2023-02-11T05:11:12.569Z,38.40
2023-02-11T05:12:12.576Z,38.80
2023-02-11T05:13:12.564Z,38.10
2023-02-11T05:14:12.550Z,37.90
2023-02-11T05:15:12.543Z,37.70
2023-02-11T05:16:12.672Z,37.80
2023-02-11T05:17:12.536Z,39.30
2023-02-11T05:18:12.534Z,39.00
2023-02-11T05:19:12.537Z,37.90
2023-02-11T05:20:12.541Z,38.40
2023-02-11T05:21:12.524Z,38.40
2023-02-11T05:22:12.540Z,38.40
2023-02-11T05:23:12.494Z,37.40
2023-02-11T05:24:12.465Z,38.30
2023-02-11T05:25:12.463Z,38.30
2023-02-11T05:26:12.469Z,38.50
2023-02-11T05:27:12.473Z,38.00
2023-02-11T05:28:12.552Z,39.20
2023-02-11T05:29:12.438Z,38.10
2023-02-11T05:30:12.440Z,39.30
2023-02-11T05:31:12.497Z,38.40
2023-02-11T05:32:12.447Z,39.40
2023-02-11T05:33:12.410Z,36.50
2023-02-11T05:34:12.480Z,39.10
2023-02-11T05:35:12.408Z,38.20
2023-02-11T05:36:12.447Z,38.60
2023-02-11T05:37:12.410Z,38.60
2023-02-11T05:38:12.387Z,37.70
2023-02-11T05:39:12.385Z,38.20
2023-02-11T05:40:12.447Z,38.20
2023-02-11T05:41:12.364Z,37.40
2023-02-11T05:42:12.339Z,38.10
2023-02-11T05:43:12.371Z,38.20
2023-02-11T05:44:12.335Z,38.60
2023-02-11T05:45:12.327Z,38.00
2023-02-11T05:46:12.385Z,38.10
2023-02-11T05:47:12.326Z,39.10
2023-02-11T05:48:12.324Z,37.40
2023-02-11T05:49:12.288Z,38.70
2023-02-11T05:50:12.347Z,38.20
2023-02-11T05:51:12.335Z,38.00
2023-02-11T05:52:12.345Z,38.20
2023-02-11T05:53:12.280Z,37.30
2023-02-11T05:54:12.281Z,38.10
2023-02-11T05:55:12.261Z,38.00
2023-02-11T05:56:12.251Z,39.00
2023-02-11T05:57:12.235Z,39.40
2023-02-11T05:58:12.307Z,38.50
2023-02-11T05:59:12.225Z,38.10
2023-02-11T06:00:12.237Z,37.90
2023-02-11T06:01:12.249Z,38.60
2023-02-11T06:02:12.253Z,38.10
2023-02-11T06:03:12.197Z,39.20
2023-02-11T06:04:12.242Z,36.90
2023-02-11T06:05:12.199Z,37.90
2023-02-11T06:06:12.211Z,38.40
2023-02-11T06:07:12.203Z,37.70
2023-02-11T06:08:12.179Z,38.50
2023-02-11T06:09:12.178Z,37.90
2023-02-11T06:10:12.559Z,38.10
2023-02-11T06:11:12.161Z,38.60
2023-02-11T06:12:12.176Z,37.30
2023-02-11T06:13:12.128Z,37.40
2023-02-11T06:14:12.174Z,38.20
2023-02-11T06:15:12.119Z,38.50
2023-02-11T06:16:12.253Z,39.00
2023-02-11T06:17:14.611Z,38.40
2023-02-11T06:18:12.123Z,38.60
2023-02-11T06:19:12.105Z,39.90
2023-02-11T06:20:12.107Z,38.60
2023-02-11T06:21:12.094Z,37.70
2023-02-11T06:22:12.092Z,37.90
2023-02-11T06:23:12.088Z,37.90
2023-02-11T06:24:12.079Z,35.80
2023-02-11T06:25:12.075Z,37.10
2023-02-11T06:26:12.044Z,36.10
2023-02-11T06:27:12.053Z,36.90
2023-02-11T06:28:12.130Z,37.70
2023-02-11T06:29:12.035Z,37.40
2023-02-11T06:30:12.078Z,36.90
2023-02-11T06:31:12.220Z,37.50
2023-02-11T06:32:33.590Z,36.70
2023-02-11T06:33:13.063Z,36.70
2023-02-11T06:34:12.018Z,35.90
2023-02-11T06:35:12.567Z,35.50
2023-02-11T06:36:11.976Z,35.90
2023-02-11T06:37:11.995Z,37.30
2023-02-11T06:38:11.964Z,36.80
2023-02-11T06:39:11.983Z,36.70
2023-02-11T06:40:11.964Z,36.00
2023-02-11T06:41:11.932Z,36.80
2023-02-11T06:42:11.945Z,36.50
2023-02-11T06:43:11.945Z,36.00
2023-02-11T06:44:11.927Z,36.60
2023-02-11T06:45:11.976Z,38.40
2023-02-11T06:46:11.922Z,35.40
2023-02-11T06:47:11.907Z,37.00
2023-02-11T06:48:11.896Z,37.10
2023-02-11T06:49:11.906Z,36.40
2023-02-11T06:50:11.889Z,36.50
2023-02-11T06:51:11.926Z,37.40
2023-02-11T06:52:11.868Z,36.80
2023-02-11T06:53:11.844Z,36.60
2023-02-11T06:54:11.858Z,37.40
2023-02-11T06:55:11.856Z,39.10
2023-02-11T06:56:11.848Z,37.10
2023-02-11T06:57:11.859Z,37.30
2023-02-11T06:58:11.799Z,35.80
2023-02-11T06:59:11.825Z,37.00
2023-02-11T07:00:11.824Z,38.90
2023-02-11T07:01:11.820Z,37.00
2023-02-11T07:02:11.842Z,35.00
2023-02-11T07:03:11.930Z,37.80
2023-02-11T07:04:11.767Z,37.50
2023-02-11T07:05:11.764Z,36.60
2023-02-11T07:06:11.750Z,35.90
2023-02-11T07:07:11.746Z,37.50
2023-02-11T07:08:11.730Z,36.00
2023-02-11T07:09:11.787Z,38.40
2023-02-11T07:10:11.778Z,37.70
2023-02-11T07:11:11.726Z,35.90
2023-02-11T07:12:11.706Z,35.90
2023-02-11T07:13:11.775Z,38.10
2023-02-11T07:14:11.719Z,37.40
2023-02-11T07:15:11.958Z,37.20
2023-02-11T07:16:11.704Z,37.60
2023-02-11T07:17:11.667Z,36.80
2023-02-11T07:18:14.538Z,37.70
2023-02-11T07:19:11.655Z,37.20
2023-02-11T07:20:11.638Z,36.10
2023-02-11T07:21:11.688Z,35.20
2023-02-11T07:22:11.639Z,36.30
2023-02-11T07:23:11.625Z,36.60
2023-02-11T07:24:11.736Z,35.90
2023-02-11T07:25:11.616Z,36.60
2023-02-11T07:26:11.602Z,37.60
2023-02-11T07:27:11.665Z,36.40
2023-02-11T07:28:11.680Z,36.40
2023-02-11T07:29:11.602Z,36.90
2023-02-11T07:30:11.573Z,34.80
2023-02-11T07:31:11.644Z,36.10
2023-02-11T07:32:11.605Z,36.70
2023-02-11T07:33:11.592Z,37.70
2023-02-11T07:34:11.557Z,35.30
2023-02-11T07:35:11.534Z,36.30
2023-02-11T07:36:11.530Z,35.70
2023-02-11T07:37:11.548Z,36.80
2023-02-11T07:38:11.513Z,37.00
2023-02-11T07:39:11.565Z,36.00
2023-02-11T07:40:11.525Z,38.20
2023-02-11T07:41:13.444Z,36.40
2023-02-11T07:42:11.486Z,36.20
2023-02-11T07:43:11.502Z,35.30
2023-02-11T07:44:11.512Z,36.60
2023-02-11T07:45:11.493Z,35.30
2023-02-11T07:46:11.513Z,36.30
2023-02-11T07:47:11.475Z,36.20
2023-02-11T07:48:11.448Z,36.60
2023-02-11T07:49:11.429Z,35.50
2023-02-11T07:50:11.486Z,36.80
2023-02-11T07:51:11.472Z,34.60
2023-02-11T07:52:12.526Z,35.50
2023-02-11T07:53:11.446Z,36.50
2023-02-11T07:54:11.414Z,35.40
2023-02-11T07:55:11.417Z,36.40
2023-02-11T07:56:11.378Z,35.80
2023-02-11T07:57:11.439Z,37.20
2023-02-11T07:58:11.392Z,36.10
2023-02-11T07:59:11.359Z,34.70
2023-02-11T08:00:11.361Z,36.40
2023-02-11T08:01:11.375Z,35.60
2023-02-11T08:02:11.434Z,36.10
2023-02-11T08:03:11.375Z,35.20
2023-02-11T08:04:11.323Z,34.50
2023-02-11T08:05:11.331Z,36.10
2023-02-11T08:06:11.317Z,36.30
2023-02-11T08:07:11.321Z,34.80
2023-02-11T08:08:11.310Z,34.90
2023-02-11T08:09:11.337Z,35.00
2023-02-11T08:10:11.281Z,36.00
2023-02-11T08:11:11.296Z,35.00
2023-02-11T08:12:11.293Z,36.20
2023-02-11T08:13:11.259Z,35.40
2023-02-11T08:14:11.271Z,36.30
2023-02-11T08:15:11.297Z,34.70
2023-02-11T08:16:11.270Z,34.20
2023-02-11T08:17:11.222Z,35.50
2023-02-11T08:18:11.249Z,35.10
2023-02-11T08:19:11.236Z,33.90
2023-02-11T08:20:11.205Z,34.80
2023-02-11T08:21:27.934Z,35.80
2023-02-11T08:22:12.219Z,33.80
2023-02-11T08:23:11.186Z,35.10
2023-02-11T08:24:11.180Z,36.00
2023-02-11T08:25:23.410Z,33.80
2023-02-11T08:26:11.170Z,34.20
2023-02-11T08:27:11.214Z,34.30
2023-02-11T08:28:11.266Z,35.20
2023-02-11T08:29:11.139Z,34.80
2023-02-11T08:30:11.133Z,35.60
2023-02-11T08:31:11.285Z,48.30
2023-02-11T08:32:11.183Z,34.80
2023-02-11T08:33:11.179Z,35.20
2023-02-11T08:34:11.114Z,36.70
2023-02-11T08:35:11.121Z,35.50
2023-02-11T08:36:11.127Z,35.00
2023-02-11T08:37:11.100Z,34.40
2023-02-11T08:38:11.082Z,34.70
2023-02-11T08:39:20.260Z,33.90
2023-02-11T08:40:12.085Z,35.10
2023-02-11T08:41:11.062Z,34.20
2023-02-11T08:42:11.056Z,34.20
2023-02-11T08:43:11.069Z,34.10
2023-02-11T08:44:11.027Z,33.80
2023-02-11T08:45:11.117Z,34.90
2023-02-11T08:46:11.090Z,34.80
2023-02-11T08:47:11.002Z,34.00
2023-02-11T08:48:11.044Z,34.70
2023-02-11T08:49:11.011Z,34.70
2023-02-11T08:50:11.025Z,36.20
2023-02-11T08:51:11.023Z,34.10
2023-02-11T08:52:10.976Z,33.40
2023-02-11T08:53:10.974Z,34.00
2023-02-11T08:54:10.971Z,34.40
2023-02-11T08:55:10.970Z,34.70
2023-02-11T08:56:13.349Z,34.20
2023-02-11T08:57:10.982Z,34.40
2023-02-11T08:58:10.961Z,35.30
2023-02-11T08:59:10.935Z,36.30
2023-02-11T09:00:10.926Z,35.40
2023-02-11T09:01:10.959Z,34.70
2023-02-11T09:02:10.922Z,35.30
2023-02-11T09:03:10.934Z,34.10
2023-02-11T09:04:10.877Z,34.50
2023-02-11T09:05:10.905Z,36.20
2023-02-11T09:06:10.920Z,35.80
2023-02-11T09:07:10.867Z,34.40
2023-02-11T09:08:10.849Z,34.60
2023-02-11T09:09:10.906Z,34.60
2023-02-11T09:10:10.868Z,34.10
2023-02-11T09:11:10.822Z,33.40
2023-02-11T09:12:10.820Z,35.20
2023-02-11T09:18:12.053Z,35.40
2023-02-11T09:19:10.790Z,35.20
2023-02-11T09:20:10.986Z,34.60
2023-02-11T09:21:10.791Z,37.10
2023-02-11T09:22:10.768Z,34.80
2023-02-11T09:23:10.766Z,35.20
2023-02-11T09:24:10.823Z,36.00
2023-02-11T09:25:10.775Z,35.30
2023-02-11T09:26:10.751Z,35.70
2023-02-11T09:27:10.754Z,35.50
2023-02-11T09:28:10.853Z,35.20
2023-02-11T09:29:10.757Z,34.90
2023-02-11T09:30:10.732Z,35.10
2023-02-11T09:31:10.894Z,35.00
2023-02-11T09:32:10.873Z,34.30
2023-02-11T09:33:10.690Z,36.60
2023-02-11T09:34:10.678Z,35.50
2023-02-11T09:35:10.656Z,35.30
2023-02-11T09:36:10.722Z,34.50
2023-02-11T09:37:10.653Z,35.40
2023-02-11T09:38:10.663Z,35.50
2023-02-11T09:39:10.640Z,34.80
2023-02-11T09:40:10.663Z,35.10
2023-02-11T09:41:10.694Z,34.90
2023-02-11T09:42:10.716Z,34.90
2023-02-11T09:43:10.611Z,35.70
2023-02-11T09:44:10.627Z,35.70
2023-02-11T09:45:10.599Z,35.70
2023-02-11T09:46:10.664Z,34.20
2023-02-11T09:47:10.635Z,35.00
2023-02-11T09:48:10.622Z,36.90
2023-02-11T09:49:10.566Z,36.60
2023-02-11T09:50:10.558Z,33.80
2023-02-11T09:51:10.574Z,35.50
2023-02-11T09:52:10.556Z,35.50
2023-02-11T09:53:10.532Z,35.60
2023-02-11T09:54:10.588Z,37.40
2023-02-11T09:55:10.544Z,36.40
2023-02-11T09:56:10.505Z,36.30
2023-02-11T09:57:19.641Z,35.90
2023-02-11T09:58:11.502Z,35.30
2023-02-11T09:59:10.504Z,35.30
2023-02-11T10:00:10.546Z,36.00
2023-02-11T10:01:10.509Z,37.00
2023-02-11T10:02:10.472Z,35.30
2023-02-11T10:03:10.473Z,36.10
2023-02-11T10:04:10.520Z,36.50
2023-02-11T10:05:10.443Z,35.40
2023-02-11T10:06:10.498Z,35.60
2023-02-11T10:07:10.431Z,35.00
2023-02-11T10:08:10.461Z,34.80
2023-02-11T10:09:10.424Z,34.80
2023-02-11T10:10:10.437Z,34.60
2023-02-11T10:11:17.595Z,36.60
2023-02-11T10:12:11.453Z,38.30
2023-02-11T10:13:10.396Z,34.10
2023-02-11T10:14:10.397Z,36.10
2023-02-11T10:15:10.408Z,36.10
2023-02-11T10:16:10.470Z,35.40
2023-02-11T10:17:10.388Z,35.40
2023-02-11T10:18:10.395Z,35.20
2023-02-11T10:19:10.365Z,35.60
2023-02-11T10:20:10.353Z,35.90
2023-02-11T10:21:10.345Z,36.60
2023-02-11T10:22:10.354Z,35.60
2023-02-11T10:23:10.345Z,35.00
2023-02-11T10:24:10.575Z,35.20
2023-02-11T10:25:10.343Z,34.80
2023-02-11T10:26:10.325Z,34.40
2023-02-11T10:27:10.323Z,35.00
2023-02-11T10:28:10.341Z,34.60
2023-02-11T10:29:10.307Z,34.50
2023-02-11T10:30:10.336Z,33.30
2023-02-11T10:31:10.395Z,34.00
2023-02-11T10:32:10.292Z,34.00
2023-02-11T10:33:10.275Z,32.80
2023-02-11T10:34:10.253Z,35.10
2023-02-11T10:35:10.240Z,33.90
2023-02-11T10:36:10.285Z,33.60
2023-02-11T10:37:10.241Z,34.10
2023-02-11T10:38:10.257Z,33.90
2023-02-11T10:39:10.210Z,34.90
2023-02-11T10:40:10.204Z,35.40
2023-02-11T10:41:10.217Z,34.20
2023-02-11T10:42:10.224Z,37.60
2023-02-11T10:43:10.190Z,33.70
2023-02-11T10:44:10.202Z,35.10
2023-02-11T10:45:10.165Z,34.10
2023-02-11T10:46:10.248Z,35.50
2023-02-11T10:47:10.166Z,34.30
2023-02-11T10:48:10.186Z,34.00
2023-02-11T10:49:10.122Z,32.10
2023-02-11T10:50:10.144Z,35.10
2023-02-11T10:51:11.021Z,34.50
2023-02-11T10:52:10.127Z,34.10
2023-02-11T10:53:10.108Z,35.60
2023-02-11T10:54:12.611Z,35.30
2023-02-11T10:55:10.101Z,35.40
2023-02-11T10:56:10.130Z,35.20
2023-02-11T10:57:10.072Z,33.60
2023-02-11T10:58:10.088Z,34.00
2023-02-11T10:59:10.104Z,34.20
2023-02-11T11:00:10.088Z,34.10
2023-02-11T11:01:23.450Z,36.60
2023-02-11T11:02:11.118Z,33.90
2023-02-11T11:03:10.037Z,35.00
2023-02-11T11:04:10.041Z,35.00
2023-02-11T11:05:10.058Z,33.50
2023-02-11T11:06:10.082Z,35.00
2023-02-11T11:07:10.001Z,35.20
2023-02-11T11:08:10.005Z,34.00
2023-02-11T11:09:09.997Z,34.40
2023-02-11T11:10:10.003Z,33.70
2023-02-11T11:11:10.034Z,34.40
2023-02-11T11:12:10.009Z,36.10
2023-02-11T11:13:09.972Z,35.80
2023-02-11T11:14:09.957Z,34.90
2023-02-11T11:15:09.966Z,34.10
2023-02-11T11:16:10.038Z,33.80
2023-02-11T11:17:09.971Z,34.60
2023-02-11T11:18:20.840Z,33.90
2023-02-11T11:19:10.937Z,35.00
2023-02-11T11:20:09.938Z,33.90
2023-02-11T11:21:09.902Z,32.60
2023-02-11T11:22:09.915Z,34.20
2023-02-11T11:23:09.998Z,32.70
2023-02-11T11:24:09.939Z,34.00
2023-02-11T11:25:09.884Z,33.60
2023-02-11T11:26:09.882Z,36.10
2023-02-11T11:27:09.855Z,33.90
2023-02-11T11:28:09.868Z,34.00
2023-02-11T11:29:09.865Z,32.00
2023-02-11T11:30:10.070Z,33.20
2023-02-11T11:31:09.968Z,32.80
2023-02-11T11:32:09.895Z,34.10
2023-02-11T11:33:09.824Z,34.70
2023-02-11T11:34:09.852Z,33.20
2023-02-11T11:35:09.810Z,34.80
2023-02-11T11:36:09.873Z,33.20
2023-02-11T11:37:09.809Z,34.70
2023-02-11T11:38:09.806Z,33.30
2023-02-11T11:39:09.796Z,33.40
2023-02-11T11:40:09.792Z,33.80
2023-02-11T11:41:09.779Z,33.60
2023-02-11T11:42:09.835Z,34.60
2023-02-11T11:43:09.742Z,33.10
2023-02-11T11:44:09.739Z,35.00
2023-02-11T11:45:09.748Z,33.00
2023-02-11T11:46:09.772Z,33.10
2023-02-11T11:47:09.715Z,33.40
2023-02-11T11:48:09.735Z,32.70
2023-02-11T11:49:09.724Z,32.50
2023-02-11T11:50:09.735Z,33.30
2023-02-11T11:51:09.725Z,34.00
2023-02-11T11:52:09.705Z,34.00
2023-02-11T11:53:09.691Z,34.20
2023-02-11T11:54:09.722Z,34.40
2023-02-11T11:55:09.657Z,32.90
2023-02-11T11:56:09.668Z,34.70
2023-02-11T11:57:09.643Z,32.30
2023-02-11T11:58:09.691Z,32.20
2023-02-11T11:59:09.660Z,33.80
2023-02-11T12:00:09.751Z,33.10
2023-02-11T12:01:09.645Z,34.20
2023-02-11T12:02:09.734Z,32.40
2023-02-11T12:03:09.738Z,33.80
2023-02-11T12:04:09.611Z,32.20
2023-02-11T12:05:09.590Z,32.70
2023-02-11T12:06:09.642Z,31.50
2023-02-11T12:07:09.629Z,31.90
2023-02-11T12:08:09.585Z,33.00
2023-02-11T12:09:09.616Z,31.90
2023-02-11T12:10:09.579Z,32.10
2023-02-11T12:11:09.602Z,32.40
2023-02-11T12:12:09.588Z,32.80
2023-02-11T12:13:09.533Z,32.30
2023-02-11T12:14:09.569Z,31.70
2023-02-11T12:15:09.525Z,31.00
2023-02-11T12:16:09.538Z,31.00
2023-02-11T12:17:09.504Z,32.10
2023-02-11T12:18:09.535Z,32.00
2023-02-11T12:19:09.520Z,32.60
2023-02-11T12:20:09.503Z,32.20
2023-02-11T12:21:09.475Z,30.60
2023-02-11T12:22:09.457Z,31.40
2023-02-11T12:23:09.515Z,32.10
2023-02-11T12:24:09.501Z,30.50
2023-02-11T12:25:09.450Z,31.70
2023-02-11T12:26:09.468Z,31.50
2023-02-11T12:27:09.415Z,30.70
2023-02-11T12:28:09.490Z,31.00
2023-02-11T12:29:09.420Z,31.30
2023-02-11T12:30:09.656Z,31.90
2023-02-11T12:31:11.411Z,31.20
2023-02-11T12:32:09.551Z,31.40
2023-02-11T12:33:09.396Z,31.40
2023-02-11T12:34:09.371Z,31.30
2023-02-11T12:35:09.372Z,32.80
2023-02-11T12:36:09.445Z,32.40
2023-02-11T12:37:09.371Z,32.10
2023-02-11T12:38:09.408Z,31.70
2023-02-11T12:39:09.419Z,32.60
2023-02-11T12:40:09.373Z,32.50
2023-02-11T12:41:09.319Z,31.10
2023-02-11T12:42:09.351Z,31.60
2023-02-11T12:43:09.355Z,31.10
2023-02-11T12:44:09.299Z,33.00
2023-02-11T12:45:09.284Z,33.60
2023-02-11T12:46:18.006Z,33.70
2023-02-11T12:47:09.270Z,31.50
2023-02-11T12:48:09.299Z,31.10
2023-02-11T12:49:09.328Z,31.40
2023-02-11T12:50:09.294Z,32.50
2023-02-11T12:51:09.302Z,33.70
2023-02-11T12:52:09.298Z,33.70
2023-02-11T12:53:09.239Z,34.30
2023-02-11T12:54:09.261Z,32.90
2023-02-11T12:55:09.224Z,32.90
2023-02-11T12:56:09.273Z,33.90
2023-02-11T12:57:09.227Z,33.10